Time;durP1;ratioP1;P1;durP2;ratioP2;P2;SDS_P1;SDS_P2;PMS_P1;PMS_P2;Temp;Humidity;BMP_temperature;BMP_pressure;BME280_temperature;BME280_humidity;BME280_pressure;Samples;Min_cycle;Max_cycle;Signal;HPM_P1;HPM_P2
2022/01/22 00:00:29;;;;;;;0.60;0.60;;;;;;;0.35;87.13;98316.19;29373;196;63004;-59
2022/01/22 00:01:01;;;;;;;0.65;0.65;;;;;;;0.35;86.84;98321.53;29373;225;63009;-68
2022/01/22 00:01:32;;;;;;;0.60;0.60;;;;;;;0.41;86.65;98309.25;29371;209;64004;-68
2022/01/22 00:02:07;;;;;;;0.60;0.60;;;;;;;0.37;86.45;98310.66;29373;212;63009;-58
2022/01/22 00:02:39;;;;;;;0.62;0.62;;;;;;;0.36;86.78;98307.16;29373;223;63005;-67
2022/01/22 00:03:11;;;;;;;2.67;2.58;;;;;;;0.32;86.59;98306.75;29373;227;63009;-67
2022/01/22 00:03:42;;;;;;;0.60;0.60;;;;;;;0.30;86.91;98318.63;29373;224;63005;-70
2022/01/22 00:04:13;;;;;;;2.17;2.08;;;;;;;0.29;87.07;98311.63;29371;258;64009;-68
2022/01/22 00:04:45;;;;;;;0.70;0.70;;;;;;;0.26;87.17;98312.84;29373;203;63005;-57
2022/01/22 00:05:18;;;;;;;0.70;0.70;;;;;;;0.30;87.01;98313.28;29373;255;63009;-69
2022/01/22 00:05:49;;;;;;;0.70;0.70;;;;;;;0.32;86.99;98312.09;29373;210;63004;-58
2022/01/22 00:06:21;;;;;;;0.70;0.70;;;;;;;0.32;86.84;98311.25;29373;207;63009;-69
2022/01/22 00:06:55;;;;;;;0.68;0.68;;;;;;;0.32;86.81;98317.41;29373;192;63004;-68
2022/01/22 00:07:27;;;;;;;0.70;0.70;;;;;;;0.38;86.90;98315.81;29373;218;63009;-72
2022/01/22 00:07:58;;;;;;;0.70;0.70;;;;;;;0.41;86.39;98310.06;29373;249;63009;-70
2022/01/22 00:08:30;;;;;;;0.60;0.60;;;;;;;0.43;86.48;98305.38;29373;222;63008;-70
2022/01/22 00:09:03;;;;;;;0.70;0.70;;;;;;;0.42;86.57;98306.38;29371;223;64004;-69
2022/01/22 00:09:38;;;;;;;0.60;0.60;;;;;;;0.41;86.54;98304.72;29371;205;64009;-69
2022/01/22 00:10:14;;;;;;;0.60;0.60;;;;;;;0.42;86.31;98305.56;29373;216;63005;-70
2022/01/22 00:10:47;;;;;;;0.70;0.70;;;;;;;0.43;86.54;98312.56;29373;222;63009;-59
2022/01/22 00:11:19;;;;;;;0.70;0.70;;;;;;;0.42;86.26;98306.38;29371;202;64005;-71
2022/01/22 00:11:54;;;;;;;0.85;0.85;;;;;;;0.40;86.12;98303.09;29373;234;63009;-69
2022/01/22 00:12:44;;;;;;;0.70;0.70;;;;;;;0.33;86.57;98302.22;29373;245;63005;-57
2022/01/22 00:14:23;;;;;;;0.70;0.70;;;;;;;0.29;87.20;98307.13;29373;216;63004;-58
2022/01/22 00:14:54;;;;;;;0.70;0.70;;;;;;;0.29;87.41;98306.31;29355;236;125009;-61
2022/01/22 00:15:26;;;;;;;0.70;0.70;;;;;;;0.30;87.26;98303.44;29373;239;63010;-70
2022/01/22 00:15:58;;;;;;;0.70;0.70;;;;;;;0.29;86.79;98292.94;29373;196;63008;-57
2022/01/22 00:16:29;;;;;;;0.60;0.60;;;;;;;0.26;86.87;98306.69;29371;211;64005;-69
2022/01/22 00:17:01;;;;;;;0.60;0.60;;;;;;;0.23;87.04;98304.41;29373;204;63009;-58
2022/01/22 00:17:33;;;;;;;0.60;0.60;;;;;;;0.19;87.03;98303.94;29371;203;64005;-71
2022/01/22 00:18:04;;;;;;;0.60;0.60;;;;;;;0.15;87.28;98310.69;29373;210;63027;-71
2022/01/22 00:18:35;;;;;;;0.70;0.70;;;;;;;0.19;87.73;98306.63;29373;204;63005;-58
2022/01/22 00:19:09;;;;;;;0.70;0.70;;;;;;;0.22;87.55;98305.41;29373;238;63009;-68
2022/01/22 00:19:40;;;;;;;0.70;0.70;;;;;;;0.22;87.76;98305.41;29373;211;63005;-69
2022/01/22 00:20:13;;;;;;;0.70;0.70;;;;;;;0.21;87.62;98304.59;29373;225;63009;-67
2022/01/22 00:20:46;;;;;;;0.65;0.65;;;;;;;0.27;87.41;98308.34;29371;239;64004;-58
2022/01/22 00:21:18;;;;;;;0.68;0.68;;;;;;;0.29;87.60;98303.63;29373;226;63009;-71
2022/01/22 00:21:50;;;;;;;0.60;0.60;;;;;;;0.28;87.52;98299.31;29373;233;63004;-68
2022/01/22 00:22:25;;;;;;;0.60;0.60;;;;;;;0.30;87.48;98302.63;29373;249;63009;-57
2022/01/22 00:22:58;;;;;;;0.70;0.70;;;;;;;0.35;87.15;98304.72;29373;217;63004;-68
2022/01/22 00:23:32;;;;;;;0.77;0.77;;;;;;;0.36;86.85;98306.31;29373;266;63008;-68
2022/01/22 00:24:11;;;;;;;0.70;0.70;;;;;;;0.33;87.07;98302.22;29373;252;63005;-68
2022/01/22 00:24:45;;;;;;;0.70;0.70;;;;;;;0.28;87.23;98302.81;29373;217;63009;-67
2022/01/22 00:25:18;;;;;;;0.70;0.70;;;;;;;0.23;87.06;98302.56;29371;205;64005;-68
2022/01/22 00:25:51;;;;;;;0.70;0.70;;;;;;;0.20;87.16;98307.44;29374;202;63009;-70
2022/01/22 00:26:23;;;;;;;0.70;0.70;;;;;;;0.21;87.62;98315.25;29374;208;63005;-70
2022/01/22 00:26:54;;;;;;;0.70;0.70;;;;;;;0.25;87.71;98305.84;29372;234;64009;-69
2022/01/22 00:27:27;;;;;;;0.70;0.70;;;;;;;0.26;87.65;98307.50;29374;204;63005;-57
2022/01/22 00:27:59;;;;;;;0.70;0.70;;;;;;;0.26;87.39;98312.03;29374;199;63009;-70
2022/01/22 00:28:30;;;;;;;0.70;0.70;;;;;;;0.24;87.60;98308.72;29374;224;63004;-70
2022/01/22 00:29:02;;;;;;;0.70;0.70;;;;;;;0.23;87.49;98307.91;29374;219;63009;-69
2022/01/22 00:29:33;;;;;;;0.70;0.70;;;;;;;0.23;87.65;98307.91;29374;214;63009;-67
2022/01/22 00:30:08;;;;;;;0.70;0.70;;;;;;;0.23;87.65;98307.06;29374;196;63009;-70
2022/01/22 00:30:39;;;;;;;0.70;0.70;;;;;;;0.20;88.02;98307.44;29374;206;63004;-68
2022/01/22 00:31:10;;;;;;;0.60;0.60;;;;;;;0.17;88.14;98308.66;29372;238;64008;-71
2022/01/22 00:31:41;;;;;;;0.60;0.60;;;;;;;0.21;88.27;98301.91;29374;210;63005;-64
2022/01/22 00:32:12;;;;;;;0.60;0.60;;;;;;;0.28;87.99;98310.00;29374;209;63009;-70
2022/01/22 00:32:44;;;;;;;0.60;0.60;;;;;;;0.32;87.65;98304.06;29374;229;63005;-62
2022/01/22 00:33:16;;;;;;;0.70;0.70;;;;;;;0.37;87.45;98298.12;29372;211;64024;-68
2022/01/22 00:33:47;;;;;;;0.70;0.70;;;;;;;0.36;87.34;98301.81;29374;256;63005;-59
2022/01/22 00:34:18;;;;;;;0.60;0.60;;;;;;;0.39;87.06;98300.59;29374;208;63009;-67
2022/01/22 00:34:49;;;;;;;0.70;0.70;;;;;;;0.37;87.31;98303.47;29374;203;63005;-68
2022/01/22 00:35:22;;;;;;;0.60;0.60;;;;;;;0.32;87.64;98300.56;29372;230;64009;-69
2022/01/22 00:35:53;;;;;;;0.65;0.65;;;;;;;0.26;88.05;98302.16;29374;211;63004;-71
2022/01/22 00:36:25;;;;;;;3.95;3.75;;;;;;;0.24;87.93;98303.38;29374;241;63017;-67
2022/01/22 00:36:56;;;;;;;0.70;0.70;;;;;;;0.22;88.11;98305.41;29374;212;63004;-69
2022/01/22 00:37:28;;;;;;;0.70;0.70;;;;;;;0.24;88.06;98306.06;29374;238;63009;-67
2022/01/22 00:38:00;;;;;;;0.60;0.60;;;;;;;0.22;88.17;98300.06;29372;222;64004;-58
2022/01/22 00:38:31;;;;;;;0.60;0.60;;;;;;;0.21;87.93;98303.75;29374;228;63008;-69
2022/01/22 00:39:03;;;;;;;0.60;0.60;;;;;;;0.23;88.32;98301.72;29374;197;63005;-70
2022/01/22 00:39:35;;;;;;;0.70;0.70;;;;;;;0.27;88.12;98297.66;29374;238;63009;-68
2022/01/22 00:40:09;;;;;;;0.60;0.60;;;;;;;0.29;88.03;98306.31;29374;202;63005;-67
2022/01/22 00:40:47;;;;;;;0.70;0.70;;;;;;;0.29;87.79;98298.28;29374;223;63009;-70
2022/01/22 00:41:19;;;;;;;0.60;0.60;;;;;;;0.32;87.70;98293.41;29372;209;64005;-68
2022/01/22 00:41:51;;;;;;;0.70;0.70;;;;;;;0.33;87.57;98302.22;29374;227;63009;-61
2022/01/22 00:42:23;;;;;;;0.60;0.60;;;;;;;0.42;87.57;98303.72;29374;204;63005;-69
2022/01/22 00:42:54;;;;;;;0.68;0.68;;;;;;;0.42;87.19;98293.03;29374;208;63009;-57
2022/01/22 00:43:26;;;;;;;0.60;0.60;;;;;;;0.40;87.26;98295.06;29374;234;63004;-58
2022/01/22 00:43:57;;;;;;;0.60;0.60;;;;;;;0.38;87.21;98297.09;29374;263;63009;-67
2022/01/22 00:44:28;;;;;;;0.70;0.70;;;;;;;0.35;87.27;98302.84;29373;228;63004;-68
2022/01/22 00:45:00;;;;;;;0.70;0.70;;;;;;;0.34;87.39;98301.22;29374;232;63009;-68
2022/01/22 00:45:32;;;;;;;0.70;0.70;;;;;;;0.36;87.39;98293.81;29374;202;63004;-68
2022/01/22 00:46:04;;;;;;;0.60;0.60;;;;;;;0.33;87.72;98302.22;29372;211;64008;-57
2022/01/22 00:46:35;;;;;;;0.60;0.60;;;;;;;0.30;88.08;98299.94;29374;212;63005;-69
2022/01/22 00:47:07;;;;;;;0.60;0.60;;;;;;;0.29;87.81;98296.44;29374;216;63009;-68
2022/01/22 00:47:38;;;;;;;0.80;0.80;;;;;;;0.32;88.34;98298.75;29374;210;63005;-69
2022/01/22 00:48:09;;;;;;;0.70;0.70;;;;;;;0.36;87.92;98301.00;29374;234;63009;-67
2022/01/22 00:48:41;;;;;;;0.70;0.70;;;;;;;0.38;87.74;98293.63;29374;234;63005;-69
2022/01/22 00:49:12;;;;;;;0.70;0.70;;;;;;;0.38;87.63;98298.94;29374;234;63009;-70
2022/01/22 00:49:43;;;;;;;0.62;0.62;;;;;;;0.38;87.94;98294.44;29374;197;63005;-69
2022/01/22 00:50:16;;;;;;;0.60;0.60;;;;;;;0.38;87.87;98299.78;29372;243;64009;-69
2022/01/22 00:50:51;;;;;;;0.70;0.70;;;;;;;0.37;87.86;98298.12;29374;210;63004;-68
2022/01/22 00:51:22;;;;;;;0.68;0.68;;;;;;;0.39;87.82;98298.75;29374;254;63009;-67
2022/01/22 00:51:55;;;;;;;0.60;0.60;;;;;;;0.38;87.44;98302.44;29372;215;64004;-70
2022/01/22 00:52:26;;;;;;;0.60;0.60;;;;;;;0.39;87.85;98301.44;29374;217;63012;-70
2022/01/22 00:52:57;;;;;;;0.60;0.60;;;;;;;0.43;87.77;98297.34;29374;197;63004;-68
2022/01/22 00:53:29;;;;;;;0.70;0.70;;;;;;;0.44;87.29;98298.19;29374;215;63008;-58
2022/01/22 00:54:01;;;;;;;0.70;0.70;;;;;;;0.44;87.27;98299.00;29374;264;63005;-67
2022/01/22 00:54:32;;;;;;;0.65;0.65;;;;;;;0.46;87.37;98301.50;29374;253;63009;-68
2022/01/22 00:55:05;;;;;;;0.70;0.70;;;;;;;0.45;87.51;98300.66;29374;236;63005;-69
2022/01/22 00:55:36;;;;;;;0.60;0.60;;;;;;;0.45;87.49;98295.31;29372;219;64009;-70
2022/01/22 00:56:07;;;;;;;0.62;0.62;;;;;;;0.45;87.52;98298.00;29374;215;63005;-71
2022/01/22 00:56:38;;;;;;;0.70;0.70;;;;;;;0.45;87.49;98289.97;29374;222;63009;-69
2022/01/22 00:57:09;;;;;;;0.70;0.70;;;;;;;0.45;87.65;98299.84;29372;203;64005;-69
2022/01/22 00:57:41;;;;;;;0.60;0.60;;;;;;;0.43;87.59;98292.00;29372;218;64009;-68
2022/01/22 00:58:13;;;;;;;0.70;0.70;;;;;;;0.43;87.32;98300.03;29374;210;63004;-59
2022/01/22 00:58:44;;;;;;;0.60;0.60;;;;;;;0.44;87.55;98292.84;29374;218;63025;-57
2022/01/22 00:59:16;;;;;;;0.60;0.60;;;;;;;0.49;87.33;98299.25;29374;241;63004;-71
2022/01/22 00:59:48;;;;;;;0.60;0.60;;;;;;;0.49;87.28;98296.59;29374;222;63009;-68
2022/01/22 01:00:19;;;;;;;0.60;0.60;;;;;;;0.52;87.24;98295.38;29375;223;63004;-70
2022/01/22 01:00:50;;;;;;;0.60;0.60;;;;;;;0.52;86.90;98301.53;29373;205;64008;-71
2022/01/22 01:01:22;;;;;;;0.62;0.62;;;;;;;0.55;87.05;98293.13;29375;202;63009;-66
2022/01/22 01:01:56;;;;;;;0.60;0.60;;;;;;;0.60;86.69;98295.22;29373;220;64009;-67
2022/01/22 01:02:27;;;;;;;0.60;0.60;;;;;;;0.59;86.92;98297.06;29375;209;63005;-70
2022/01/22 01:02:58;;;;;;;2.03;1.95;;;;;;;0.58;86.39;98290.09;29375;199;63009;-59
2022/01/22 01:03:32;;;;;;;0.60;0.60;;;;;;;0.54;86.53;98294.16;29375;203;63005;-68
2022/01/22 01:04:04;;;;;;;0.60;0.60;;;;;;;0.54;86.85;98290.66;29375;224;63009;-69
2022/01/22 01:04:37;;;;;;;0.60;0.60;;;;;;;0.53;86.72;98297.03;29375;207;63005;-59
2022/01/22 01:05:11;;;;;;;0.60;0.60;;;;;;;0.49;87.14;98296.59;29375;227;63009;-67
2022/01/22 01:05:43;;;;;;;0.60;0.60;;;;;;;0.43;87.21;98286.69;29375;197;63005;-68
2022/01/22 01:06:14;;;;;;;0.60;0.60;;;;;;;0.48;87.29;98288.75;29375;218;63014;-71
2022/01/22 01:06:45;;;;;;;0.60;0.60;;;;;;;0.50;87.29;98289.41;29375;206;63004;-71
2022/01/22 01:07:17;;;;;;;0.90;0.90;;;;;;;0.52;87.21;98288.19;29373;255;64009;-70
2022/01/22 01:07:48;;;;;;;0.60;0.60;;;;;;;0.56;87.16;98289.44;29375;252;63004;-70
2022/01/22 01:08:21;;;;;;;0.60;0.60;;;;;;;0.56;86.74;98281.44;29375;209;63008;-67
2022/01/22 01:08:52;;;;;;;0.60;0.60;;;;;;;0.56;86.67;98286.78;29375;270;63004;-68
2022/01/22 01:09:23;;;;;;;0.60;0.60;;;;;;;0.56;86.74;98286.78;29376;236;63009;-71
2022/01/22 01:09:54;;;;;;;0.60;0.60;;;;;;;0.54;87.16;98288.81;29376;199;63005;-57
2022/01/22 01:10:25;;;;;;;0.62;0.62;;;;;;;0.55;86.87;98284.31;29376;233;63009;-61
2022/01/22 01:10:56;;;;;;;0.60;0.60;;;;;;;0.62;86.92;98286.00;29374;202;64005;-62
2022/01/22 01:11:30;;;;;;;0.60;0.60;;;;;;;0.70;86.50;98286.84;29376;250;63009;-63
2022/01/22 01:12:08;;;;;;;0.60;0.60;;;;;;;0.69;86.14;98285.22;29374;204;64005;-69
2022/01/22 01:12:40;;;;;;;0.70;0.70;;;;;;;0.64;86.44;98286.63;29376;225;63009;-70
2022/01/22 01:13:14;;;;;;;0.60;0.60;;;;;;;0.62;86.50;98283.34;29376;245;63004;-70
2022/01/22 01:13:49;;;;;;;0.60;0.60;;;;;;;0.61;86.73;98284.34;29376;209;63009;-66
2022/01/22 01:14:34;;;;;;;0.60;0.60;;;;;;;0.63;86.38;98290.31;29376;213;63004;-72
2022/01/22 01:16:14;;;;;;;0.70;0.70;;;;;;;0.66;86.63;98292.63;29376;235;63004;-69
2022/01/22 01:17:08;;;;;;;0.70;0.70;;;;;;;0.66;86.52;98287.25;29374;256;64009;-59
2022/01/22 01:17:58;;;;;;;0.70;0.70;;;;;;;0.66;86.29;98289.94;29398;214;63005;-69
2022/01/22 01:33:01;;;;;;;0.70;0.70;;;;;;;0.80;86.15;98301.50;29375;231;63005;-71
2022/01/22 01:33:48;;;;;;;0.70;0.70;;;;;;;0.78;85.96;98305.41;29373;202;64009;-71
2022/01/22 01:34:22;;;;;;;0.70;0.70;;;;;;;0.78;85.94;98302.72;29375;217;63005;-71
2022/01/22 01:34:53;;;;;;;0.70;0.70;;;;;;;0.78;86.32;98300.06;29375;223;63009;-69
2022/01/22 01:35:29;;;;;;;0.70;0.70;;;;;;;0.79;86.17;98307.06;29375;220;63004;-59
2022/01/22 01:36:02;;;;;;;0.60;0.60;;;;;;;0.84;85.86;98294.75;29375;225;63009;-64
2022/01/22 01:36:33;;;;;;;0.70;0.70;;;;;;;0.86;85.63;98298.06;29375;205;63017;-67
2022/01/22 01:37:04;;;;;;;0.60;0.60;;;;;;;0.86;85.59;98297.25;29375;219;63024;-70
2022/01/22 01:37:36;;;;;;;0.70;0.70;;;;;;;0.83;85.63;98289.62;29375;234;63008;-70
2022/01/22 01:38:08;;;;;;;0.60;0.60;;;;;;;0.85;85.82;98295.59;29373;210;64008;-67
2022/01/22 01:38:43;;;;;;;0.68;0.68;;;;;;;0.89;85.82;98297.66;29375;235;63005;-62
2022/01/22 01:39:22;;;;;;;0.60;0.60;;;;;;;0.90;85.75;98301.16;29375;254;63009;-59
2022/01/22 01:39:59;;;;;;;0.60;0.60;;;;;;;0.89;85.79;98296.84;29375;304;63005;-69
2022/01/22 01:40:33;;;;;;;0.70;0.70;;;;;;;0.86;85.81;98297.25;29375;289;63026;-68
2022/01/22 01:41:14;;;;;;;0.65;0.65;;;;;;;0.85;85.69;98295.59;29375;289;63005;-67
2022/01/22 01:42:07;;;;;;;0.70;0.70;;;;;;;0.84;85.91;98300.09;29395;246;64009;-71
2022/01/22 01:42:48;;;;;;;0.70;0.70;;;;;;;0.87;85.75;98298.88;29396;218;63004;-71
2022/01/22 01:43:25;;;;;;;0.70;0.70;;;;;;;0.85;86.12;98295.59;29397;227;63009;-67
2022/01/22 01:43:56;;;;;;;0.60;0.60;;;;;;;0.86;85.68;98305.25;29396;238;63004;-63
2022/01/22 01:44:28;;;;;;;0.60;0.60;;;;;;;0.85;85.99;98301.75;29375;216;63009;-67
2022/01/22 01:45:04;;;;;;;0.70;0.70;;;;;;;0.87;85.68;98304.22;29375;223;63004;-67
2022/01/22 01:45:35;;;;;;;0.60;0.60;;;;;;;0.88;85.75;98305.88;29375;241;63008;-65
2022/01/22 01:46:06;;;;;;;0.70;0.70;;;;;;;0.88;85.64;98305.88;29375;255;63005;-55
2022/01/22 01:46:46;;;;;;;0.62;0.62;;;;;;;0.93;85.69;98306.12;29375;219;63009;-63
2022/01/22 01:47:19;;;;;;;0.60;0.60;;;;;;;0.92;85.41;98309.81;29373;216;64005;-67
2022/01/22 01:48:00;;;;;;;0.70;0.70;;;;;;;0.96;85.30;98311.06;29375;197;63009;-60
2022/01/22 01:48:37;;;;;;;;;;;;;;;0.95;85.26;98310.25;29975;982;27000;-68
2022/01/22 01:49:08;;;;;;;0.70;0.70;;;;;;;0.95;85.36;98312.09;29401;225;63005;-56
2022/01/22 01:49:40;;;;;;;0.70;0.70;;;;;;;0.94;85.51;98310.44;29375;221;63009;-67
2022/01/22 01:50:15;;;;;;;0.60;0.60;;;;;;;0.91;85.56;98310.84;29375;222;63004;-55
2022/01/22 01:50:47;;;;;;;0.60;0.60;;;;;;;0.90;85.70;98309.19;29375;227;63009;-68
2022/01/22 01:51:19;;;;;;;0.60;0.60;;;;;;;0.87;85.58;98310.41;29375;245;63004;-66
2022/01/22 01:51:53;;;;;;;0.60;0.60;;;;;;;0.89;85.58;98312.88;29373;250;64009;-56
2022/01/22 01:52:41;;;;;;;0.60;0.60;;;;;;;0.90;85.57;98311.84;29373;223;64004;-61
2022/01/22 01:53:30;;;;;;;0.70;0.70;;;;;;;0.97;85.33;98304.72;29375;221;63008;-68
2022/01/22 01:55:09;;;;;;;0.60;0.60;;;;;;;0.95;85.46;98322.78;29375;203;63009;-69
2022/01/22 01:57:23;;;;;;;0.70;0.70;;;;;;;0.92;85.54;98305.28;29375;205;63005;-71
2022/01/22 01:57:43;;;;;;;0.70;0.70;;;;;;;0.91;85.65;98310.84;29397;205;63005;-67
2022/01/22 01:58:16;;;;;;;0.70;0.70;;;;;;;0.90;85.48;98306.50;29396;232;63009;-56
2022/01/22 01:58:47;;;;;;;0.60;0.60;;;;;;;0.89;85.63;98308.34;29375;222;63004;-69
2022/01/22 01:59:19;;;;;;;0.90;0.90;;;;;;;0.94;85.83;98310.44;29375;224;63009;-71
2022/01/22 01:59:52;;;;;;;0.60;0.60;;;;;;;0.95;85.54;98312.09;29375;258;63004;-71
2022/01/22 02:00:25;;;;;;;0.70;0.70;;;;;;;0.96;85.35;98303.06;29375;204;63008;-70
2022/01/22 02:01:01;;;;;;;0.70;0.70;;;;;;;1.01;85.18;98316.66;29375;228;63004;-69
2022/01/22 02:01:33;;;;;;;0.70;0.70;;;;;;;1.02;85.32;98318.31;29375;239;63009;-70
2022/01/22 02:02:04;;;;;;;0.60;0.60;;;;;;;1.00;85.37;98312.34;29373;248;64005;-66
2022/01/22 02:02:37;;;;;;;0.60;0.60;;;;;;;0.98;85.24;98317.88;29375;304;63009;-70
2022/01/22 02:03:11;;;;;;;0.65;0.65;;;;;;;1.02;85.25;98318.31;29375;222;63005;-69
2022/01/22 02:03:42;;;;;;;0.70;0.70;;;;;;;1.02;85.16;98312.97;29375;250;63009;-68
2022/01/22 02:04:14;;;;;;;0.60;0.60;;;;;;;1.00;85.34;98320.34;29375;204;63005;-64
2022/01/22 02:04:45;;;;;;;0.60;0.60;;;;;;;1.03;85.02;98319.13;29375;222;63009;-63
2022/01/22 02:05:20;;;;;;;0.60;0.60;;;;;;;1.05;85.27;98317.06;29375;217;63005;-71
2022/01/22 02:05:52;;;;;;;0.70;0.70;;;;;;;1.02;84.92;98318.31;29373;198;64009;-69
2022/01/22 02:06:23;;;;;;;0.70;0.70;;;;;;;0.99;85.37;98313.34;29375;204;63004;-69
2022/01/22 02:06:55;;;;;;;1.00;1.00;;;;;;;1.02;85.21;98312.12;29373;215;64009;-72
2022/01/22 02:07:27;;;;;;;0.60;0.60;;;;;;;1.04;85.33;98321.59;29375;210;63004;-71
2022/01/22 02:07:59;;;;;;;0.70;0.70;;;;;;;1.03;84.97;98319.13;29375;198;63008;-65
2022/01/22 02:08:30;;;;;;;0.70;0.70;;;;;;;1.03;85.21;98311.94;29375;224;63004;-56
2022/01/22 02:09:07;;;;;;;0.70;0.70;;;;;;;1.06;84.97;98313.38;29375;267;63009;-67
2022/01/22 02:09:40;;;;;;;0.60;0.60;;;;;;;1.11;84.92;98309.09;29375;219;63005;-69
2022/01/22 02:10:20;;;;;;;0.70;0.70;;;;;;;1.12;84.77;98307.22;29373;232;64009;-67
2022/01/22 02:10:59;;;;;;;0.60;0.60;;;;;;;1.12;84.83;98318.75;29375;222;63005;-68
2022/01/22 02:11:30;;;;;;;0.60;0.60;;;;;;;1.14;84.75;98311.38;29375;237;63022;-62
2022/01/22 02:12:18;;;;;;;0.68;0.68;;;;;;;1.14;84.58;98314.03;29375;218;63004;-55
2022/01/22 02:23:39;;;;;;;0.70;0.70;;;;;;;0.96;85.61;98313.75;29395;232;63009;-55
2022/01/22 02:24:14;;;;;;;0.77;0.77;;;;;;;1.00;85.43;98320.34;29393;202;64005;-63
2022/01/22 02:24:45;;;;;;;0.60;0.60;;;;;;;1.05;85.44;98315.22;29373;261;63009;-69
2022/01/22 02:25:17;;;;;;;0.60;0.60;;;;;;;1.05;85.06;98317.88;29373;250;63005;-71
2022/01/22 02:25:50;;;;;;;0.70;0.70;;;;;;;1.07;84.93;98315.84;29373;222;63009;-62
2022/01/22 02:26:22;;;;;;;0.65;0.65;;;;;;;1.09;85.09;98313.81;29373;232;63005;-71
2022/01/22 02:26:53;;;;;;;0.60;0.60;;;;;;;1.08;85.04;98312.16;29371;211;64009;-69
2022/01/22 02:27:25;;;;;;;0.60;0.60;;;;;;;1.07;84.92;98315.03;29373;218;63004;-66
2022/01/22 02:27:56;;;;;;;0.70;0.70;;;;;;;1.07;84.81;98309.69;29373;227;63009;-69
2022/01/22 02:28:27;;;;;;;0.60;0.60;;;;;;;1.05;84.81;98317.88;29373;197;63004;-69
2022/01/22 02:28:58;;;;;;;0.70;0.70;;;;;;;1.09;84.99;98303.09;29371;229;64009;-67
2022/01/22 02:29:29;;;;;;;0.62;0.62;;;;;;;1.08;84.95;98306.81;29373;200;63004;-68
2022/01/22 02:30:01;;;;;;;0.70;0.70;;;;;;;1.08;84.71;98301.47;29373;198;63008;-71
2022/01/22 02:30:36;;;;;;;1.02;0.98;;;;;;;1.07;84.92;98302.47;29373;204;63005;-68
2022/01/22 02:33:42;;;;;;;0.70;0.70;;;;;;;1.03;85.36;98303.94;29371;213;64009;-58
2022/01/22 02:34:31;;;;;;;0.60;0.60;;;;;;;1.03;85.20;98298.56;29371;230;64005;-62
2022/01/22 02:35:17;;;;;;;0.60;0.60;;;;;;;1.08;85.08;98300.63;29373;261;63009;-69
2022/01/22 02:35:55;;;;;;;0.70;0.70;;;;;;;1.03;85.00;98298.56;29373;227;63004;-66
2022/01/22 02:36:40;;;;;;;0.60;0.60;;;;;;;0.97;85.30;98305.53;29373;234;63009;-70
2022/01/22 02:37:16;;;;;;;0.60;0.60;;;;;;;0.96;85.73;98308.41;29373;220;63004;-71
2022/01/22 02:37:50;;;;;;;0.60;0.60;;;;;;;0.96;85.81;98303.06;29371;227;64008;-71
2022/01/22 02:38:31;;;;;;;0.70;0.70;;;;;;;0.95;85.84;98306.75;29373;197;63005;-70
2022/01/22 02:39:18;;;;;;;0.60;0.60;;;;;;;0.94;85.59;98311.28;29373;254;63009;-64
2022/01/22 02:40:52;;;;;;;0.70;0.70;;;;;;;0.95;85.92;98306.75;29371;276;64009;-57
2022/01/22 02:41:26;;;;;;;12.37;7.47;;;;;;;1.00;85.72;98307.81;29368;275;64005;-68
2022/01/22 02:41:57;;;;;;;0.60;0.60;;;;;;;1.06;85.40;98303.50;29373;230;63009;-60
2022/01/22 02:42:32;;;;;;;0.60;0.60;;;;;;;1.10;85.17;98304.75;29373;242;63004;-67
2022/01/22 02:43:03;;;;;;;0.60;0.60;;;;;;;1.11;85.10;98301.06;29373;255;63009;-67
2022/01/22 02:43:34;;;;;;;0.70;0.70;;;;;;;1.08;84.94;98306.81;29373;222;63004;-63
2022/01/22 02:44:05;;;;;;;0.60;0.60;;;;;;;1.08;85.17;98306.81;29373;223;63009;-71
2022/01/22 02:44:45;;;;;;;0.88;0.88;;;;;;;1.09;85.13;98303.09;29373;225;63004;-70
2022/01/22 02:45:20;;;;;;;0.65;0.65;;;;;;;1.09;85.23;98302.28;29371;242;64008;-58
2022/01/22 02:45:53;;;;;;;0.60;0.60;;;;;;;1.11;84.93;98306.41;29373;230;63005;-57
2022/01/22 02:46:27;;;;;;;0.60;0.60;;;;;;;1.09;84.71;98300.44;29373;251;63009;-72
2022/01/22 02:46:59;;;;;;;0.80;0.80;;;;;;;1.12;85.16;98301.87;29373;245;63005;-70
2022/01/22 02:47:32;;;;;;;0.60;0.60;;;;;;;1.11;85.18;98306.41;29373;227;63009;-67
2022/01/22 02:48:04;;;;;;;1.12;1.12;;;;;;;1.12;85.02;98300.03;29373;205;63005;-70
2022/01/22 02:48:35;;;;;;;0.60;0.60;;;;;;;1.10;84.69;98298.59;29374;197;63009;-69
2022/01/22 02:49:06;;;;;;;0.60;0.60;;;;;;;1.07;85.07;98297.12;29373;217;63005;-70
2022/01/22 02:49:38;;;;;;;0.60;0.60;;;;;;;1.07;84.87;98302.47;29373;207;63009;-69
2022/01/22 02:50:10;;;;;;;0.60;0.60;;;;;;;1.06;85.08;98303.50;29371;252;64018;-71
2022/01/22 02:50:42;;;;;;;0.60;0.60;;;;;;;1.06;85.40;98300.81;29373;218;63009;-67
2022/01/22 02:51:14;;;;;;;0.60;0.60;;;;;;;1.04;85.47;98300.19;29373;224;63004;-68
2022/01/22 02:51:45;;;;;;;0.60;0.60;;;;;;;1.04;85.39;98297.53;29373;221;63009;-64
2022/01/22 02:52:20;;;;;;;0.60;0.60;;;;;;;1.09;85.34;98300.44;29373;223;63004;-63
2022/01/22 02:52:51;;;;;;;0.60;0.60;;;;;;;1.15;84.96;98296.16;29373;220;63008;-69
2022/01/22 02:53:22;;;;;;;0.60;0.60;;;;;;;1.14;84.90;98299.84;29373;221;63005;-68
2022/01/22 02:53:55;;;;;;;0.60;0.60;;;;;;;1.15;84.98;98305.00;29371;240;64009;-67
2022/01/22 02:54:27;;;;;;;1.65;1.55;;;;;;;1.21;84.82;98301.53;29373;206;63005;-70
2022/01/22 02:55:00;;;;;;;0.60;0.60;;;;;;;1.21;84.73;98306.88;29373;241;63009;-57
2022/01/22 02:55:32;;;;;;;0.80;0.80;;;;;;;1.21;84.62;98301.53;29373;218;63005;-69
2022/01/22 02:56:04;;;;;;;0.70;0.70;;;;;;;1.21;84.71;98290.84;29373;211;63009;-68
2022/01/22 02:56:38;;;;;;;0.60;0.60;;;;;;;1.18;84.79;98296.59;29373;218;63005;-67
2022/01/22 02:57:11;;;;;;;0.60;0.60;;;;;;;1.14;84.48;98295.31;29373;222;63009;-69
2022/01/22 02:57:45;;;;;;;0.65;0.65;;;;;;;1.13;84.94;98303.53;29373;202;63004;-67
2022/01/22 02:58:16;;;;;;;0.60;0.60;;;;;;;1.09;85.22;98303.09;29373;213;63009;-68
2022/01/22 02:58:50;;;;;;;0.80;0.80;;;;;;;1.04;85.05;98297.53;29371;205;64004;-69
2022/01/22 02:59:23;;;;;;;0.60;0.60;;;;;;;1.04;85.23;98300.19;29373;204;63009;-71
2022/01/22 02:59:54;;;;;;;1.12;1.12;;;;;;;1.12;85.37;98296.53;29373;226;63004;-68
2022/01/22 03:00:26;;;;;;;0.70;0.70;;;;;;;1.11;84.96;98295.72;29373;217;63008;-69
2022/01/22 03:00:58;;;;;;;0.60;0.60;;;;;;;1.12;84.96;98296.53;29371;215;64005;-69
2022/01/22 03:01:29;;;;;;;0.60;0.60;;;;;;;1.14;85.07;98298.00;29373;255;63009;-63
2022/01/22 03:02:03;;;;;;;0.60;0.60;;;;;;;1.15;84.96;98296.97;29373;219;63005;-69
2022/01/22 03:02:34;;;;;;;0.60;0.60;;;;;;;1.15;84.89;98290.81;29373;214;63009;-70
2022/01/22 03:03:06;;;;;;;1.40;1.40;;;;;;;1.16;84.87;98295.94;29373;218;63005;-69
2022/01/22 03:03:38;;;;;;;0.60;0.60;;;;;;;1.19;84.72;98298.22;29373;261;63009;-69
2022/01/22 03:04:10;;;;;;;0.60;0.60;;;;;;;1.17;84.92;98294.94;29373;202;63005;-68
2022/01/22 03:04:42;;;;;;;0.60;0.60;;;;;;;1.15;84.66;98294.31;29373;254;63009;-69
2022/01/22 03:05:13;;;;;;;15.85;3.90;;;;;;;1.10;84.92;98291.41;29368;202;64004;-56
2022/01/22 03:05:44;;;;;;;0.60;0.60;;;;;;;1.10;84.98;98294.06;29371;229;64009;-69
2022/01/22 03:06:16;;;;;;;0.60;0.60;;;;;;;1.11;85.18;98290.38;29371;211;64004;-67
2022/01/22 03:06:49;;;;;;;0.60;0.60;;;;;;;1.09;85.12;98299.63;29373;312;63013;-66
2022/01/22 03:07:20;;;;;;;0.60;0.60;;;;;;;1.07;85.25;98291.78;29373;246;63004;-69
2022/01/22 03:07:54;;;;;;;0.60;0.60;;;;;;;1.06;85.19;98290.12;29373;278;63008;-67
2022/01/22 03:08:28;;;;;;;0.60;0.60;;;;;;;1.04;85.53;98292.19;29373;278;63015;-69
2022/01/22 03:09:00;;;;;;;0.95;0.95;;;;;;;1.07;85.26;98288.28;29373;294;63009;-67
2022/01/22 03:09:39;;;;;;;0.60;0.60;;;;;;;1.05;85.27;98288.50;29373;210;63005;-68
2022/01/22 03:10:12;;;;;;;0.60;0.60;;;;;;;1.05;85.29;98285.81;29373;225;63009;-68
2022/01/22 03:10:49;;;;;;;0.70;0.70;;;;;;;1.08;85.35;98290.75;29373;218;63005;-69
2022/01/22 03:11:24;;;;;;;0.60;0.60;;;;;;;1.06;85.69;98287.47;29371;211;64009;-70
2022/01/22 03:16:03;;;;;;;0.60;0.60;;;;;;;1.23;84.35;98282.62;29373;220;63005;-64
2022/01/22 03:17:52;;;;;;;0.62;0.62;;;;;;;1.30;84.19;98294.16;29371;220;64005;-58
2022/01/22 03:19:29;;;;;;;0.60;0.60;;;;;;;1.29;84.09;98293.34;29373;223;63004;-65
2022/01/22 03:20:19;;;;;;;0.60;0.60;;;;;;;1.23;83.97;98299.50;29373;197;63009;-67
2022/01/22 03:21:16;;;;;;;0.70;0.70;;;;;;;1.24;84.36;98298.47;29373;217;63004;-68
2022/01/22 03:21:59;;;;;;;0.70;0.70;;;;;;;1.20;84.70;98294.53;29373;206;63018;-67
2022/01/22 03:27:42;;;;;;;8.38;8.02;;;;;;;1.17;84.50;98292.25;29371;206;65000;-70